sensor_id;sensor_type;location;lat;lon;timestamp;temperature;humidity
5086;DHT22;4715;51.660;7.082;2024-01-16T00:00:38;1.10;99.90
5086;DHT22;4715;51.660;7.082;2024-01-16T00:02:59;1.10;99.90
5086;DHT22;4715;51.660;7.082;2024-01-16T00:05:20;1.10;99.90
5086;DHT22;4715;51.660;7.082;2024-01-16T00:07:43;1.10;99.90
5086;DHT22;4715;51.660;7.082;2024-01-16T00:10:07;1.10;99.90
5086;DHT22;4715;51.660;7.082;2024-01-16T00:12:29;1.10;99.90
5086;DHT22;4715;51.660;7.082;2024-01-16T00:14:51;1.10;99.90
5086;DHT22;4715;51.660;7.082;2024-01-16T00:17:13;1.10;99.90
5086;DHT22;4715;51.660;7.082;2024-01-16T00:19:35;1.10;99.90
5086;DHT22;4715;51.660;7.082;2024-01-16T00:21:57;1.10;99.90
5086;DHT22;4715;51.660;7.082;2024-01-16T00:24:22;1.10;99.90
5086;DHT22;4715;51.660;7.082;2024-01-16T00:26:44;1.10;99.90
5086;DHT22;4715;51.660;7.082;2024-01-16T00:29:07;1.20;99.90
5086;DHT22;4715;51.660;7.082;2024-01-16T00:31:29;1.20;99.90
5086;DHT22;4715;51.660;7.082;2024-01-16T00:33:51;1.20;99.90
5086;DHT22;4715;51.660;7.082;2024-01-16T00:36:13;1.20;99.90
5086;DHT22;4715;51.660;7.082;2024-01-16T00:38:35;1.20;99.90
5086;DHT22;4715;51.660;7.082;2024-01-16T00:40:58;1.10;99.90
5086;DHT22;4715;51.660;7.082;2024-01-16T00:43:20;1.10;99.90
5086;DHT22;4715;51.660;7.082;2024-01-16T00:45:42;1.10;99.90
5086;DHT22;4715;51.660;7.082;2024-01-16T00:48:04;1.10;99.90
5086;DHT22;4715;51.660;7.082;2024-01-16T00:50:29;1.00;99.90
5086;DHT22;4715;51.660;7.082;2024-01-16T00:52:52;1.00;99.90
5086;DHT22;4715;51.660;7.082;2024-01-16T00:55:13;1.00;99.90
5086;DHT22;4715;51.660;7.082;2024-01-16T00:57:36;1.00;99.90
5086;DHT22;4715;51.660;7.082;2024-01-16T01:00:01;1.00;99.90
5086;DHT22;4715;51.660;7.082;2024-01-16T01:02:24;1.00;99.90
5086;DHT22;4715;51.660;7.082;2024-01-16T01:04:46;1.00;99.90
5086;DHT22;4715;51.660;7.082;2024-01-16T01:07:08;0.90;99.90
5086;DHT22;4715;51.660;7.082;2024-01-16T01:09:32;0.90;99.90
5086;DHT22;4715;51.660;7.082;2024-01-16T01:11:54;1.00;99.90
5086;DHT22;4715;51.660;7.082;2024-01-16T01:14:17;1.00;99.90
5086;DHT22;4715;51.660;7.082;2024-01-16T01:16:39;1.00;99.90
5086;DHT22;4715;51.660;7.082;2024-01-16T01:19:03;1.00;99.90
5086;DHT22;4715;51.660;7.082;2024-01-16T01:21:24;1.00;99.90
5086;DHT22;4715;51.660;7.082;2024-01-16T01:23:47;1.00;99.90
5086;DHT22;4715;51.660;7.082;2024-01-16T01:26:09;1.00;99.90
5086;DHT22;4715;51.660;7.082;2024-01-16T01:28:34;1.00;99.90
5086;DHT22;4715;51.660;7.082;2024-01-16T01:30:57;0.90;99.90
5086;DHT22;4715;51.660;7.082;2024-01-16T01:33:19;0.90;99.90
5086;DHT22;4715;51.660;7.082;2024-01-16T01:35:40;0.90;99.90
5086;DHT22;4715;51.660;7.082;2024-01-16T01:38:05;0.90;99.90
5086;DHT22;4715;51.660;7.082;2024-01-16T01:40:28;0.90;99.90
5086;DHT22;4715;51.660;7.082;2024-01-16T01:42:50;0.90;99.90
5086;DHT22;4715;51.660;7.082;2024-01-16T01:45:12;0.90;99.90
5086;DHT22;4715;51.660;7.082;2024-01-16T01:47:36;0.90;99.90
5086;DHT22;4715;51.660;7.082;2024-01-16T01:49:58;0.90;99.90
5086;DHT22;4715;51.660;7.082;2024-01-16T01:52:20;0.90;99.90
5086;DHT22;4715;51.660;7.082;2024-01-16T01:54:42;0.90;99.90
5086;DHT22;4715;51.660;7.082;2024-01-16T01:57:06;0.90;99.90
5086;DHT22;4715;51.660;7.082;2024-01-16T01:59:29;0.90;99.90
5086;DHT22;4715;51.660;7.082;2024-01-16T02:01:53;0.90;99.90
5086;DHT22;4715;51.660;7.082;2024-01-16T02:04:17;0.90;99.90
5086;DHT22;4715;51.660;7.082;2024-01-16T02:06:41;0.90;99.90
5086;DHT22;4715;51.660;7.082;2024-01-16T02:09:03;0.90;99.90
5086;DHT22;4715;51.660;7.082;2024-01-16T02:11:27;0.90;99.90
5086;DHT22;4715;51.660;7.082;2024-01-16T02:13:49;0.90;99.90
5086;DHT22;4715;51.660;7.082;2024-01-16T02:16:20;0.90;99.90
5086;DHT22;4715;51.660;7.082;2024-01-16T02:18:42;0.90;99.90
5086;DHT22;4715;51.660;7.082;2024-01-16T02:21:06;0.90;99.90
5086;DHT22;4715;51.660;7.082;2024-01-16T02:23:30;0.90;99.90
5086;DHT22;4715;51.660;7.082;2024-01-16T02:25:53;0.90;99.90
5086;DHT22;4715;51.660;7.082;2024-01-16T02:28:13;0.90;99.90
5086;DHT22;4715;51.660;7.082;2024-01-16T02:30:35;0.90;99.90
5086;DHT22;4715;51.660;7.082;2024-01-16T02:32:57;0.90;99.90
5086;DHT22;4715;51.660;7.082;2024-01-16T02:35:19;0.90;99.90
5086;DHT22;4715;51.660;7.082;2024-01-16T02:37:41;0.90;99.90
5086;DHT22;4715;51.660;7.082;2024-01-16T02:40:06;0.90;99.90
5086;DHT22;4715;51.660;7.082;2024-01-16T02:42:29;1.00;99.90
5086;DHT22;4715;51.660;7.082;2024-01-16T02:44:54;1.00;99.90
5086;DHT22;4715;51.660;7.082;2024-01-16T02:47:16;1.00;99.90
5086;DHT22;4715;51.660;7.082;2024-01-16T02:49:38;0.90;99.90
5086;DHT22;4715;51.660;7.082;2024-01-16T02:52:00;1.00;99.90
5086;DHT22;4715;51.660;7.082;2024-01-16T02:54:22;1.00;99.90
5086;DHT22;4715;51.660;7.082;2024-01-16T02:56:45;1.00;99.90
5086;DHT22;4715;51.660;7.082;2024-01-16T02:59:07;1.00;99.90
5086;DHT22;4715;51.660;7.082;2024-01-16T03:01:29;0.90;99.90
5086;DHT22;4715;51.660;7.082;2024-01-16T03:03:55;0.90;99.90
5086;DHT22;4715;51.660;7.082;2024-01-16T03:06:24;1.00;99.90
5086;DHT22;4715;51.660;7.082;2024-01-16T03:08:45;0.90;99.90
5086;DHT22;4715;51.660;7.082;2024-01-16T03:11:07;0.90;99.90
5086;DHT22;4715;51.660;7.082;2024-01-16T03:13:33;0.90;99.90
5086;DHT22;4715;51.660;7.082;2024-01-16T03:15:55;0.90;99.90
5086;DHT22;4715;51.660;7.082;2024-01-16T03:18:17;0.90;99.90
5086;DHT22;4715;51.660;7.082;2024-01-16T03:20:39;0.90;99.90
5086;DHT22;4715;51.660;7.082;2024-01-16T03:23:00;0.90;99.90
5086;DHT22;4715;51.660;7.082;2024-01-16T03:25:25;0.90;99.90
5086;DHT22;4715;51.660;7.082;2024-01-16T03:27:46;1.00;99.90
5086;DHT22;4715;51.660;7.082;2024-01-16T03:30:10;1.00;99.90
5086;DHT22;4715;51.660;7.082;2024-01-16T03:32:32;1.00;99.90
5086;DHT22;4715;51.660;7.082;2024-01-16T03:34:55;1.00;99.90
5086;DHT22;4715;51.660;7.082;2024-01-16T03:37:18;1.00;99.90
5086;DHT22;4715;51.660;7.082;2024-01-16T03:39:40;1.00;99.90
5086;DHT22;4715;51.660;7.082;2024-01-16T03:42:05;1.00;99.90
5086;DHT22;4715;51.660;7.082;2024-01-16T03:44:27;1.00;99.90
5086;DHT22;4715;51.660;7.082;2024-01-16T03:46:50;1.00;99.90
5086;DHT22;4715;51.660;7.082;2024-01-16T03:49:12;1.00;99.90
5086;DHT22;4715;51.660;7.082;2024-01-16T03:51:34;1.00;99.90
5086;DHT22;4715;51.660;7.082;2024-01-16T03:53:56;1.00;99.90
5086;DHT22;4715;51.660;7.082;2024-01-16T03:56:18;1.00;99.90
5086;DHT22;4715;51.660;7.082;2024-01-16T03:58:40;1.00;99.90
5086;DHT22;4715;51.660;7.082;2024-01-16T04:01:03;1.10;99.90
5086;DHT22;4715;51.660;7.082;2024-01-16T04:03:27;1.10;99.90
5086;DHT22;4715;51.660;7.082;2024-01-16T04:05:48;1.00;99.90
5086;DHT22;4715;51.660;7.082;2024-01-16T04:08:13;1.10;99.90
5086;DHT22;4715;51.660;7.082;2024-01-16T04:10:34;1.00;99.90
5086;DHT22;4715;51.660;7.082;2024-01-16T04:13:00;1.10;99.90
5086;DHT22;4715;51.660;7.082;2024-01-16T04:15:24;1.00;99.90
5086;DHT22;4715;51.660;7.082;2024-01-16T04:17:46;1.10;99.90
5086;DHT22;4715;51.660;7.082;2024-01-16T04:20:11;1.10;99.90
5086;DHT22;4715;51.660;7.082;2024-01-16T04:22:33;1.10;99.90
5086;DHT22;4715;51.660;7.082;2024-01-16T04:24:55;1.00;99.90
5086;DHT22;4715;51.660;7.082;2024-01-16T04:27:17;1.00;99.90
5086;DHT22;4715;51.660;7.082;2024-01-16T04:29:39;1.10;99.90
5086;DHT22;4715;51.660;7.082;2024-01-16T04:32:01;1.00;99.90
5086;DHT22;4715;51.660;7.082;2024-01-16T04:34:23;1.00;99.90
5086;DHT22;4715;51.660;7.082;2024-01-16T04:36:46;1.00;99.90
5086;DHT22;4715;51.660;7.082;2024-01-16T04:39:08;1.10;99.90
5086;DHT22;4715;51.660;7.082;2024-01-16T04:41:32;1.10;99.90
5086;DHT22;4715;51.660;7.082;2024-01-16T04:43:54;1.10;99.90
5086;DHT22;4715;51.660;7.082;2024-01-16T04:46:16;1.10;99.90
5086;DHT22;4715;51.660;7.082;2024-01-16T04:48:40;1.10;99.90
5086;DHT22;4715;51.660;7.082;2024-01-16T04:51:02;1.10;99.90
5086;DHT22;4715;51.660;7.082;2024-01-16T04:53:26;1.10;99.90
5086;DHT22;4715;51.660;7.082;2024-01-16T04:55:48;1.10;99.90
5086;DHT22;4715;51.660;7.082;2024-01-16T04:58:10;1.10;99.90
5086;DHT22;4715;51.660;7.082;2024-01-16T05:00:31;1.10;99.90
5086;DHT22;4715;51.660;7.082;2024-01-16T05:02:53;1.10;99.90
5086;DHT22;4715;51.660;7.082;2024-01-16T05:05:15;1.10;99.90
5086;DHT22;4715;51.660;7.082;2024-01-16T05:07:37;1.10;99.90
5086;DHT22;4715;51.660;7.082;2024-01-16T05:10:01;1.10;99.90
5086;DHT22;4715;51.660;7.082;2024-01-16T05:12:23;1.10;99.90
5086;DHT22;4715;51.660;7.082;2024-01-16T05:14:45;1.10;99.90
5086;DHT22;4715;51.660;7.082;2024-01-16T05:17:06;1.10;99.90
5086;DHT22;4715;51.660;7.082;2024-01-16T05:19:28;1.10;99.90
5086;DHT22;4715;51.660;7.082;2024-01-16T05:21:50;1.10;99.90
5086;DHT22;4715;51.660;7.082;2024-01-16T05:24:13;1.10;99.90
5086;DHT22;4715;51.660;7.082;2024-01-16T05:26:36;1.10;99.90
5086;DHT22;4715;51.660;7.082;2024-01-16T05:28:58;1.10;99.90
5086;DHT22;4715;51.660;7.082;2024-01-16T05:31:20;1.10;99.90
5086;DHT22;4715;51.660;7.082;2024-01-16T05:33:41;1.10;99.90
5086;DHT22;4715;51.660;7.082;2024-01-16T05:36:04;1.10;99.90
5086;DHT22;4715;51.660;7.082;2024-01-16T05:38:26;1.00;99.90
5086;DHT22;4715;51.660;7.082;2024-01-16T05:40:48;1.00;99.90
5086;DHT22;4715;51.660;7.082;2024-01-16T05:43:13;1.00;99.90
5086;DHT22;4715;51.660;7.082;2024-01-16T05:45:36;1.00;99.90
5086;DHT22;4715;51.660;7.082;2024-01-16T05:47:57;1.00;99.90
5086;DHT22;4715;51.660;7.082;2024-01-16T05:50:20;1.00;99.90
5086;DHT22;4715;51.660;7.082;2024-01-16T05:52:41;1.00;99.90
5086;DHT22;4715;51.660;7.082;2024-01-16T05:55:04;1.00;99.90
5086;DHT22;4715;51.660;7.082;2024-01-16T05:57:26;1.00;99.90
5086;DHT22;4715;51.660;7.082;2024-01-16T05:59:49;1.00;99.90
5086;DHT22;4715;51.660;7.082;2024-01-16T06:02:12;1.00;99.90
5086;DHT22;4715;51.660;7.082;2024-01-16T06:04:34;1.00;99.90
5086;DHT22;4715;51.660;7.082;2024-01-16T06:06:56;1.00;99.90
5086;DHT22;4715;51.660;7.082;2024-01-16T06:09:18;1.00;99.90
5086;DHT22;4715;51.660;7.082;2024-01-16T06:11:42;1.00;99.90
5086;DHT22;4715;51.660;7.082;2024-01-16T06:14:04;1.10;99.90
5086;DHT22;4715;51.660;7.082;2024-01-16T06:16:28;1.10;99.90
5086;DHT22;4715;51.660;7.082;2024-01-16T06:18:50;1.10;99.90
5086;DHT22;4715;51.660;7.082;2024-01-16T06:21:12;1.10;99.90
5086;DHT22;4715;51.660;7.082;2024-01-16T06:23:35;1.10;99.90
5086;DHT22;4715;51.660;7.082;2024-01-16T06:25:58;1.10;99.90
5086;DHT22;4715;51.660;7.082;2024-01-16T06:28:20;1.10;99.90
5086;DHT22;4715;51.660;7.082;2024-01-16T06:30:45;1.10;99.90
5086;DHT22;4715;51.660;7.082;2024-01-16T06:33:08;1.10;99.90
5086;DHT22;4715;51.660;7.082;2024-01-16T06:35:31;1.10;99.90
5086;DHT22;4715;51.660;7.082;2024-01-16T06:37:53;1.10;99.90
5086;DHT22;4715;51.660;7.082;2024-01-16T06:40:15;1.10;99.90
5086;DHT22;4715;51.660;7.082;2024-01-16T06:42:37;1.10;99.90
5086;DHT22;4715;51.660;7.082;2024-01-16T06:44:59;1.10;99.90
5086;DHT22;4715;51.660;7.082;2024-01-16T06:47:21;1.10;99.90
5086;DHT22;4715;51.660;7.082;2024-01-16T06:49:45;1.10;99.90
5086;DHT22;4715;51.660;7.082;2024-01-16T06:52:08;1.10;99.90
5086;DHT22;4715;51.660;7.082;2024-01-16T06:54:31;1.10;99.90
5086;DHT22;4715;51.660;7.082;2024-01-16T06:56:53;1.10;99.90
5086;DHT22;4715;51.660;7.082;2024-01-16T06:59:15;1.10;99.90
5086;DHT22;4715;51.660;7.082;2024-01-16T07:01:39;1.10;99.90
5086;DHT22;4715;51.660;7.082;2024-01-16T07:04:02;1.10;99.90
5086;DHT22;4715;51.660;7.082;2024-01-16T07:06:26;1.10;99.90
5086;DHT22;4715;51.660;7.082;2024-01-16T07:08:49;1.10;99.90
5086;DHT22;4715;51.660;7.082;2024-01-16T07:11:11;1.00;99.90
5086;DHT22;4715;51.660;7.082;2024-01-16T07:13:34;1.00;99.90
5086;DHT22;4715;51.660;7.082;2024-01-16T07:15:55;1.00;99.90
5086;DHT22;4715;51.660;7.082;2024-01-16T07:18:17;1.00;99.90
5086;DHT22;4715;51.660;7.082;2024-01-16T07:20:39;1.00;99.90
5086;DHT22;4715;51.660;7.082;2024-01-16T07:23:05;1.00;99.90
5086;DHT22;4715;51.660;7.082;2024-01-16T07:25:30;1.00;99.90
5086;DHT22;4715;51.660;7.082;2024-01-16T07:27:53;1.00;99.90
5086;DHT22;4715;51.660;7.082;2024-01-16T07:30:16;1.00;99.90
5086;DHT22;4715;51.660;7.082;2024-01-16T07:32:38;1.00;99.90
5086;DHT22;4715;51.660;7.082;2024-01-16T07:35:03;1.00;99.90
5086;DHT22;4715;51.660;7.082;2024-01-16T07:37:25;1.00;99.90
5086;DHT22;4715;51.660;7.082;2024-01-16T07:39:49;1.00;99.90
5086;DHT22;4715;51.660;7.082;2024-01-16T07:42:11;1.00;99.90
5086;DHT22;4715;51.660;7.082;2024-01-16T07:44:33;1.00;99.90
5086;DHT22;4715;51.660;7.082;2024-01-16T07:46:56;1.00;99.90
5086;DHT22;4715;51.660;7.082;2024-01-16T07:49:18;1.00;99.90
5086;DHT22;4715;51.660;7.082;2024-01-16T07:51:40;1.00;99.90
5086;DHT22;4715;51.660;7.082;2024-01-16T07:54:07;1.00;99.90
5086;DHT22;4715;51.660;7.082;2024-01-16T07:56:30;1.00;99.90
5086;DHT22;4715;51.660;7.082;2024-01-16T07:58:52;1.00;99.90
5086;DHT22;4715;51.660;7.082;2024-01-16T08:01:14;0.90;99.90
5086;DHT22;4715;51.660;7.082;2024-01-16T08:03:36;0.90;99.90
5086;DHT22;4715;51.660;7.082;2024-01-16T08:06:00;0.90;99.90
5086;DHT22;4715;51.660;7.082;2024-01-16T08:08:30;0.80;99.90
5086;DHT22;4715;51.660;7.082;2024-01-16T08:10:54;0.90;99.90
5086;DHT22;4715;51.660;7.082;2024-01-16T08:13:18;0.80;99.90
5086;DHT22;4715;51.660;7.082;2024-01-16T08:15:41;0.80;99.90
5086;DHT22;4715;51.660;7.082;2024-01-16T08:18:03;0.80;99.90
5086;DHT22;4715;51.660;7.082;2024-01-16T08:20:25;0.80;99.90
5086;DHT22;4715;51.660;7.082;2024-01-16T08:22:49;0.80;99.90
5086;DHT22;4715;51.660;7.082;2024-01-16T08:25:11;0.80;99.90
5086;DHT22;4715;51.660;7.082;2024-01-16T08:27:33;0.80;99.90
5086;DHT22;4715;51.660;7.082;2024-01-16T08:29:57;0.80;99.90
5086;DHT22;4715;51.660;7.082;2024-01-16T08:32:21;0.70;99.90
5086;DHT22;4715;51.660;7.082;2024-01-16T08:34:44;0.80;99.90
5086;DHT22;4715;51.660;7.082;2024-01-16T08:37:08;0.70;99.90
5086;DHT22;4715;51.660;7.082;2024-01-16T08:39:30;0.80;99.90
5086;DHT22;4715;51.660;7.082;2024-01-16T08:41:54;0.80;99.90
5086;DHT22;4715;51.660;7.082;2024-01-16T08:44:19;0.80;99.90
5086;DHT22;4715;51.660;7.082;2024-01-16T08:46:42;0.70;99.90
5086;DHT22;4715;51.660;7.082;2024-01-16T08:49:04;0.80;99.90
5086;DHT22;4715;51.660;7.082;2024-01-16T08:51:26;0.80;99.90
5086;DHT22;4715;51.660;7.082;2024-01-16T08:53:48;0.80;99.90
5086;DHT22;4715;51.660;7.082;2024-01-16T08:56:10;0.80;99.90
5086;DHT22;4715;51.660;7.082;2024-01-16T08:58:32;0.80;99.90
5086;DHT22;4715;51.660;7.082;2024-01-16T09:00:56;0.80;99.90
5086;DHT22;4715;51.660;7.082;2024-01-16T09:03:19;0.80;99.90
5086;DHT22;4715;51.660;7.082;2024-01-16T09:05:42;0.80;99.90
5086;DHT22;4715;51.660;7.082;2024-01-16T09:08:05;0.80;99.90
5086;DHT22;4715;51.660;7.082;2024-01-16T09:10:29;0.80;99.90
5086;DHT22;4715;51.660;7.082;2024-01-16T09:12:51;0.80;99.90
5086;DHT22;4715;51.660;7.082;2024-01-16T09:15:17;0.80;99.90
5086;DHT22;4715;51.660;7.082;2024-01-16T09:17:39;0.80;99.90
5086;DHT22;4715;51.660;7.082;2024-01-16T09:20:03;0.80;99.90
5086;DHT22;4715;51.660;7.082;2024-01-16T09:22:25;0.80;99.90
5086;DHT22;4715;51.660;7.082;2024-01-16T09:24:48;0.80;99.90
5086;DHT22;4715;51.660;7.082;2024-01-16T09:27:11;0.80;99.90
5086;DHT22;4715;51.660;7.082;2024-01-16T09:29:36;0.90;99.90
5086;DHT22;4715;51.660;7.082;2024-01-16T09:31:58;0.90;99.90
5086;DHT22;4715;51.660;7.082;2024-01-16T09:34:21;0.80;99.90
5086;DHT22;4715;51.660;7.082;2024-01-16T09:36:44;0.90;99.90
5086;DHT22;4715;51.660;7.082;2024-01-16T09:39:07;0.90;99.90
5086;DHT22;4715;51.660;7.082;2024-01-16T09:41:32;0.90;99.90
5086;DHT22;4715;51.660;7.082;2024-01-16T09:43:54;0.90;99.90
5086;DHT22;4715;51.660;7.082;2024-01-16T09:46:17;0.90;99.90
5086;DHT22;4715;51.660;7.082;2024-01-16T09:48:44;0.90;99.90
5086;DHT22;4715;51.660;7.082;2024-01-16T09:51:07;0.90;99.90
5086;DHT22;4715;51.660;7.082;2024-01-16T09:53:31;0.90;99.90
5086;DHT22;4715;51.660;7.082;2024-01-16T09:55:54;0.90;99.90
5086;DHT22;4715;51.660;7.082;2024-01-16T09:58:18;0.90;99.90
5086;DHT22;4715;51.660;7.082;2024-01-16T10:00:43;0.90;99.90
5086;DHT22;4715;51.660;7.082;2024-01-16T10:03:05;0.90;99.90
5086;DHT22;4715;51.660;7.082;2024-01-16T10:05:27;0.90;99.90
5086;DHT22;4715;51.660;7.082;2024-01-16T10:07:52;0.90;99.90
5086;DHT22;4715;51.660;7.082;2024-01-16T10:10:15;0.90;99.90
5086;DHT22;4715;51.660;7.082;2024-01-16T10:12:37;0.90;99.90
5086;DHT22;4715;51.660;7.082;2024-01-16T10:15:00;0.90;99.90
5086;DHT22;4715;51.660;7.082;2024-01-16T10:17:22;0.90;99.90
5086;DHT22;4715;51.660;7.082;2024-01-16T10:19:48;0.90;99.90
5086;DHT22;4715;51.660;7.082;2024-01-16T10:22:11;0.90;99.90
5086;DHT22;4715;51.660;7.082;2024-01-16T10:24:33;0.90;99.90
5086;DHT22;4715;51.660;7.082;2024-01-16T10:27:02;0.90;99.90
5086;DHT22;4715;51.660;7.082;2024-01-16T10:29:24;0.90;99.90
5086;DHT22;4715;51.660;7.082;2024-01-16T10:31:46;0.90;99.90
5086;DHT22;4715;51.660;7.082;2024-01-16T10:34:19;0.90;99.90
5086;DHT22;4715;51.660;7.082;2024-01-16T10:36:42;1.00;99.90
5086;DHT22;4715;51.660;7.082;2024-01-16T10:39:04;0.90;99.90
5086;DHT22;4715;51.660;7.082;2024-01-16T10:41:27;0.90;99.90
5086;DHT22;4715;51.660;7.082;2024-01-16T10:44:03;1.00;99.90
5086;DHT22;4715;51.660;7.082;2024-01-16T10:46:25;1.00;99.90
5086;DHT22;4715;51.660;7.082;2024-01-16T10:48:59;1.00;99.90
5086;DHT22;4715;51.660;7.082;2024-01-16T10:51:21;1.00;99.90
5086;DHT22;4715;51.660;7.082;2024-01-16T10:53:44;1.00;99.90
5086;DHT22;4715;51.660;7.082;2024-01-16T10:56:10;1.00;99.90
5086;DHT22;4715;51.660;7.082;2024-01-16T10:58:34;1.00;99.90
5086;DHT22;4715;51.660;7.082;2024-01-16T11:01:02;1.00;99.90
5086;DHT22;4715;51.660;7.082;2024-01-16T11:03:33;1.10;99.90
5086;DHT22;4715;51.660;7.082;2024-01-16T11:05:58;1.10;99.90
5086;DHT22;4715;51.660;7.082;2024-01-16T11:08:25;1.10;99.90
5086;DHT22;4715;51.660;7.082;2024-01-16T11:10:53;1.20;99.90
5086;DHT22;4715;51.660;7.082;2024-01-16T11:13:17;1.20;99.90
5086;DHT22;4715;51.660;7.082;2024-01-16T11:15:41;1.20;99.90
5086;DHT22;4715;51.660;7.082;2024-01-16T11:18:06;1.20;99.90
5086;DHT22;4715;51.660;7.082;2024-01-16T11:20:30;1.30;99.90
5086;DHT22;4715;51.660;7.082;2024-01-16T11:22:54;1.30;99.90
5086;DHT22;4715;51.660;7.082;2024-01-16T11:25:20;1.30;99.90
5086;DHT22;4715;51.660;7.082;2024-01-16T11:27:43;1.40;99.90
5086;DHT22;4715;51.660;7.082;2024-01-16T11:30:07;1.40;99.90
5086;DHT22;4715;51.660;7.082;2024-01-16T11:32:48;1.40;99.90
5086;DHT22;4715;51.660;7.082;2024-01-16T11:35:12;1.40;99.90
5086;DHT22;4715;51.660;7.082;2024-01-16T11:37:35;1.40;99.90
5086;DHT22;4715;51.660;7.082;2024-01-16T11:40:23;1.50;99.90
5086;DHT22;4715;51.660;7.082;2024-01-16T11:42:47;1.60;99.90
5086;DHT22;4715;51.660;7.082;2024-01-16T11:45:49;1.60;99.90
5086;DHT22;4715;51.660;7.082;2024-01-16T11:48:23;1.70;99.90
5086;DHT22;4715;51.660;7.082;2024-01-16T11:50:47;1.70;99.90
5086;DHT22;4715;51.660;7.082;2024-01-16T11:53:09;1.80;99.90
5086;DHT22;4715;51.660;7.082;2024-01-16T11:55:32;1.70;99.90
5086;DHT22;4715;51.660;7.082;2024-01-16T12:00:41;1.90;99.90
5086;DHT22;4715;51.660;7.082;2024-01-16T12:03:09;1.90;99.90
5086;DHT22;4715;51.660;7.082;2024-01-16T12:05:31;2.00;99.90
5086;DHT22;4715;51.660;7.082;2024-01-16T12:07:55;2.00;99.90
5086;DHT22;4715;51.660;7.082;2024-01-16T12:10:19;2.00;99.90
5086;DHT22;4715;51.660;7.082;2024-01-16T12:12:41;2.10;99.90
5086;DHT22;4715;51.660;7.082;2024-01-16T12:15:03;2.30;99.90
5086;DHT22;4715;51.660;7.082;2024-01-16T12:17:27;2.40;99.90
5086;DHT22;4715;51.660;7.082;2024-01-16T12:19:49;2.60;99.90
5086;DHT22;4715;51.660;7.082;2024-01-16T12:22:15;2.60;99.90
5086;DHT22;4715;51.660;7.082;2024-01-16T12:24:41;2.70;99.90
5086;DHT22;4715;51.660;7.082;2024-01-16T12:27:03;2.80;99.90
5086;DHT22;4715;51.660;7.082;2024-01-16T12:29:26;2.90;99.90
5086;DHT22;4715;51.660;7.082;2024-01-16T12:31:50;2.90;99.90
5086;DHT22;4715;51.660;7.082;2024-01-16T12:34:11;2.90;99.90
5086;DHT22;4715;51.660;7.082;2024-01-16T12:36:33;3.00;99.90
5086;DHT22;4715;51.660;7.082;2024-01-16T12:38:58;3.10;99.90
5086;DHT22;4715;51.660;7.082;2024-01-16T12:41:22;3.10;99.90
5086;DHT22;4715;51.660;7.082;2024-01-16T12:43:49;3.10;99.90
5086;DHT22;4715;51.660;7.082;2024-01-16T12:46:13;3.10;99.90
5086;DHT22;4715;51.660;7.082;2024-01-16T12:48:35;3.00;99.90
5086;DHT22;4715;51.660;7.082;2024-01-16T12:51:00;3.20;99.90
5086;DHT22;4715;51.660;7.082;2024-01-16T12:53:24;3.30;99.90
5086;DHT22;4715;51.660;7.082;2024-01-16T12:55:46;3.40;99.90
5086;DHT22;4715;51.660;7.082;2024-01-16T12:58:17;3.50;99.90
5086;DHT22;4715;51.660;7.082;2024-01-16T13:00:40;3.60;99.90
5086;DHT22;4715;51.660;7.082;2024-01-16T13:03:02;3.80;99.90
5086;DHT22;4715;51.660;7.082;2024-01-16T13:05:30;3.90;99.90
5086;DHT22;4715;51.660;7.082;2024-01-16T13:08:01;4.10;99.90
5086;DHT22;4715;51.660;7.082;2024-01-16T13:10:27;4.10;99.90
5086;DHT22;4715;51.660;7.082;2024-01-16T13:12:51;4.10;99.90
5086;DHT22;4715;51.660;7.082;2024-01-16T13:15:14;4.10;99.90
5086;DHT22;4715;51.660;7.082;2024-01-16T13:17:37;4.10;99.90
5086;DHT22;4715;51.660;7.082;2024-01-16T13:20:02;3.80;99.90
5086;DHT22;4715;51.660;7.082;2024-01-16T13:22:25;3.50;99.90
5086;DHT22;4715;51.660;7.082;2024-01-16T13:24:47;3.30;99.90
5086;DHT22;4715;51.660;7.082;2024-01-16T13:27:09;3.20;99.90
5086;DHT22;4715;51.660;7.082;2024-01-16T13:29:33;3.10;99.90
5086;DHT22;4715;51.660;7.082;2024-01-16T13:32:03;3.10;99.90
5086;DHT22;4715;51.660;7.082;2024-01-16T13:34:26;3.00;99.90
5086;DHT22;4715;51.660;7.082;2024-01-16T13:36:49;3.00;99.90
5086;DHT22;4715;51.660;7.082;2024-01-16T13:39:14;2.90;99.90
5086;DHT22;4715;51.660;7.082;2024-01-16T13:41:37;2.90;99.90
5086;DHT22;4715;51.660;7.082;2024-01-16T13:43:59;2.80;99.90
5086;DHT22;4715;51.660;7.082;2024-01-16T13:46:25;2.70;99.90
5086;DHT22;4715;51.660;7.082;2024-01-16T13:48:49;2.60;99.90
5086;DHT22;4715;51.660;7.082;2024-01-16T13:51:11;2.60;99.90
5086;DHT22;4715;51.660;7.082;2024-01-16T13:53:33;2.50;99.90
5086;DHT22;4715;51.660;7.082;2024-01-16T13:55:57;2.50;99.90
5086;DHT22;4715;51.660;7.082;2024-01-16T13:58:20;2.50;99.90
5086;DHT22;4715;51.660;7.082;2024-01-16T14:00:44;2.40;99.90
5086;DHT22;4715;51.660;7.082;2024-01-16T14:03:08;2.40;99.90
5086;DHT22;4715;51.660;7.082;2024-01-16T14:05:31;2.40;99.90
5086;DHT22;4715;51.660;7.082;2024-01-16T14:07:53;2.30;99.90
5086;DHT22;4715;51.660;7.082;2024-01-16T14:10:15;2.30;99.90
5086;DHT22;4715;51.660;7.082;2024-01-16T14:12:37;2.30;99.90
5086;DHT22;4715;51.660;7.082;2024-01-16T14:14:59;2.30;99.90
5086;DHT22;4715;51.660;7.082;2024-01-16T14:17:23;2.30;99.90
5086;DHT22;4715;51.660;7.082;2024-01-16T14:19:46;2.30;99.90
5086;DHT22;4715;51.660;7.082;2024-01-16T14:22:10;2.30;99.90
5086;DHT22;4715;51.660;7.082;2024-01-16T14:24:32;2.30;99.90
5086;DHT22;4715;51.660;7.082;2024-01-16T14:26:54;2.30;99.90
5086;DHT22;4715;51.660;7.082;2024-01-16T14:29:17;2.30;99.90
5086;DHT22;4715;51.660;7.082;2024-01-16T14:31:40;2.30;99.90
5086;DHT22;4715;51.660;7.082;2024-01-16T14:34:03;2.20;99.90
5086;DHT22;4715;51.660;7.082;2024-01-16T14:36:25;2.20;99.90
5086;DHT22;4715;51.660;7.082;2024-01-16T14:38:49;2.20;99.90
5086;DHT22;4715;51.660;7.082;2024-01-16T14:41:12;2.20;99.90
5086;DHT22;4715;51.660;7.082;2024-01-16T14:43:33;2.20;99.90
5086;DHT22;4715;51.660;7.082;2024-01-16T14:45:55;2.10;99.90
5086;DHT22;4715;51.660;7.082;2024-01-16T14:48:19;2.20;99.90
5086;DHT22;4715;51.660;7.082;2024-01-16T14:50:42;2.10;99.90
5086;DHT22;4715;51.660;7.082;2024-01-16T14:53:04;2.10;99.90
5086;DHT22;4715;51.660;7.082;2024-01-16T14:55:28;2.10;99.90
5086;DHT22;4715;51.660;7.082;2024-01-16T14:57:50;2.10;99.90
5086;DHT22;4715;51.660;7.082;2024-01-16T15:00:17;2.10;99.90
5086;DHT22;4715;51.660;7.082;2024-01-16T15:02:44;2.00;99.90
5086;DHT22;4715;51.660;7.082;2024-01-16T15:05:06;2.00;99.90
5086;DHT22;4715;51.660;7.082;2024-01-16T15:07:28;1.90;99.90
5086;DHT22;4715;51.660;7.082;2024-01-16T15:09:50;1.90;99.90
5086;DHT22;4715;51.660;7.082;2024-01-16T15:12:16;1.80;99.90
5086;DHT22;4715;51.660;7.082;2024-01-16T15:14:39;1.80;99.90
5086;DHT22;4715;51.660;7.082;2024-01-16T15:17:02;1.80;99.90
5086;DHT22;4715;51.660;7.082;2024-01-16T15:19:24;1.80;99.90
5086;DHT22;4715;51.660;7.082;2024-01-16T15:21:46;1.80;99.90
5086;DHT22;4715;51.660;7.082;2024-01-16T15:24:08;1.80;99.90
5086;DHT22;4715;51.660;7.082;2024-01-16T15:26:39;1.80;99.90
5086;DHT22;4715;51.660;7.082;2024-01-16T15:29:04;1.70;99.90
5086;DHT22;4715;51.660;7.082;2024-01-16T15:31:27;1.80;99.90
5086;DHT22;4715;51.660;7.082;2024-01-16T15:33:49;1.70;99.90
5086;DHT22;4715;51.660;7.082;2024-01-16T15:39:01;1.70;99.90
5086;DHT22;4715;51.660;7.082;2024-01-16T15:41:24;1.60;99.90
5086;DHT22;4715;51.660;7.082;2024-01-16T15:43:46;1.60;99.90
5086;DHT22;4715;51.660;7.082;2024-01-16T15:46:11;1.50;99.90
5086;DHT22;4715;51.660;7.082;2024-01-16T15:48:36;1.50;99.90
5086;DHT22;4715;51.660;7.082;2024-01-16T15:50:59;1.50;99.90
5086;DHT22;4715;51.660;7.082;2024-01-16T15:53:21;1.40;99.90
5086;DHT22;4715;51.660;7.082;2024-01-16T15:55:45;1.40;99.90